• Join FlightAware (Why Join?)
  • Login
  • US Flag 
12:53PM EDT


 

Airport Tracker/Info


-or-


 

Live Flight TrackerFlight Track Log ✈ CSN6873 ✈ 21-Oct-2013 ✈ ZWWW / URC - ZWKC / KCA

Flight Track Log - Related Links

Times and Time Zones

All times are in EDT time to prevent confusion due to time zone crossing. See the CSN6873 flight status page for this flight to view local times or setup timezone preferences in your user account.

Time Position Orientation Groundspeed Altitude Reporting Facility
EDT Latitude Longitude Course Direction KTS MPH feet Rate Location/Type
08:40PM 43.8158 87.2727 238° Southwest  Level Estimated
08:41PM 43.7241 87.0719 238° Southwest  Level Estimated
08:42PM 43.6321 86.8716 238° Southwest  Level Estimated
08:43PM 43.5397 86.6719 237° Southwest  Level Estimated
08:44PM 43.4470 86.4729 237° Southwest  Level Estimated
08:45PM 43.3539 86.2744 237° Southwest  Level Estimated
08:46PM 43.2605 86.0766 237° Southwest  Level Estimated
08:47PM 43.1667 85.8794 237° Southwest  Level Estimated
08:48PM 43.0726 85.6828 237° Southwest  Level Estimated
08:49PM 42.9782 85.4868 237° Southwest  Level Estimated
08:50PM 42.8835 85.2914 237° Southwest  Level Estimated
08:51PM 42.7884 85.0965 236° Southwest  Level Estimated
08:52PM 42.6930 84.9023 236° Southwest  Level Estimated
08:53PM 42.5972 84.7087 236° Southwest  Level Estimated
08:54PM 42.5011 84.5157 236° Southwest  Level Estimated
08:55PM 42.4047 84.3233 236° Southwest  Level Estimated
08:56PM 42.3080 84.1315 236° Southwest  Level Estimated
08:57PM 42.2110 83.9402 236° Southwest  Level Estimated
08:58PM 42.1137 83.7496 236° Southwest  Level Estimated
08:59PM 42.0160 83.5595 235° Southwest  Level Estimated
09:00PM 41.9180 83.3700 235° Southwest  Level Estimated
09:01PM 41.8197 83.1811 235° Southwest  Level Estimated
09:02PM 41.7211 82.9928 235° Southwest  Level Estimated
09:03PM 41.7181 82.9869 235° Southwest  Level Estimated
09:04PM 41.7181 82.9869 143° Southeast  Level Estimated
09:05PM 41.7181 82.9869 143° Southeast  Level Estimated
09:06PM 41.7181 82.9869 143° Southeast  Level Estimated
09:07PM 41.7181 82.9869 143° Southeast  Level Estimated
09:08PM 41.7181 82.9869 143° Southeast  Level Estimated
09:09PM 41.7181 82.9869 143° Southeast  Level Estimated
09:10PM 41.7181 82.9869 143° Southeast  Level Estimated
09:11PM 41.7181 82.9869 143° Southeast  Level Estimated
09:12PM 41.7181 82.9869 143° Southeast  Level Estimated
09:13PM 41.7181 82.9869 143° Southeast  Level Estimated
09:14PM 41.7181 82.9869 143° Southeast  Level Estimated
09:15PM 41.7181 82.9869 143° Southeast  Level Estimated
09:16PM 41.7181 82.9869 143° Southeast  Level Estimated
09:17PM 41.7181 82.9869 143° Southeast  Level Estimated